createdAt,value
2023-02-14T00:01:20.457Z,18.70
2023-02-14T00:03:49.293Z,19.00
2023-02-14T00:06:17.154Z,19.50
2023-02-14T00:08:45.382Z,18.50
2023-02-14T00:11:13.824Z,19.03
2023-02-14T00:14:01.080Z,18.90
2023-02-14T00:16:28.328Z,19.90
2023-02-14T00:19:04.503Z,17.13
2023-02-14T00:21:33.089Z,19.30
2023-02-14T00:24:00.784Z,17.70
2023-02-14T00:26:28.183Z,19.33
2023-02-14T00:28:55.360Z,20.53
2023-02-14T00:31:24.745Z,18.40
2023-02-14T00:33:52.023Z,18.43
2023-02-14T00:36:20.249Z,20.57
2023-02-14T00:38:47.385Z,20.30
2023-02-14T00:41:20.543Z,18.90
2023-02-14T00:43:49.336Z,18.50
2023-02-14T00:46:20.021Z,21.10
2023-02-14T00:48:47.933Z,18.90
2023-02-14T00:51:18.201Z,19.27
2023-02-14T00:53:47.702Z,18.10
2023-02-14T00:56:15.735Z,18.00
2023-02-14T00:58:43.436Z,18.60
2023-02-14T01:01:12.719Z,19.87
2023-02-14T01:03:40.220Z,18.80
2023-02-14T01:06:08.235Z,19.30
2023-02-14T01:08:36.088Z,20.97
2023-02-14T01:11:16.183Z,21.03
2023-02-14T01:13:44.464Z,19.70
2023-02-14T01:16:14.606Z,18.50
2023-02-14T01:18:42.638Z,19.77
2023-02-14T01:21:18.053Z,19.97
2023-02-14T01:23:48.396Z,19.73
2023-02-14T01:26:16.902Z,21.60
2023-02-14T01:28:45.134Z,19.43
2023-02-14T01:31:15.551Z,21.27
2023-02-14T01:33:44.693Z,19.83
2023-02-14T01:36:29.938Z,21.40
2023-02-14T01:39:00.131Z,21.10
2023-02-14T01:41:29.177Z,20.10
2023-02-14T01:44:02.758Z,21.43
2023-02-14T01:46:33.338Z,20.10
2023-02-14T01:49:09.236Z,22.43
2023-02-14T01:51:40.409Z,20.83
2023-02-14T01:54:09.380Z,21.07
2023-02-14T01:56:41.414Z,21.00
2023-02-14T01:59:16.040Z,22.00
2023-02-14T02:01:44.897Z,21.33
2023-02-14T02:04:17.884Z,20.70
2023-02-14T02:06:50.979Z,23.00
2023-02-14T02:09:38.933Z,21.40
2023-02-14T02:12:06.952Z,23.00
2023-02-14T02:14:34.988Z,21.10
2023-02-14T02:17:37.703Z,20.57
2023-02-14T02:20:25.167Z,23.20
2023-02-14T02:23:17.033Z,22.00
2023-02-14T02:26:06.745Z,21.13
2023-02-14T02:29:22.266Z,22.53
2023-02-14T02:32:11.375Z,20.03
2023-02-14T02:34:57.341Z,21.50
2023-02-14T02:38:03.074Z,22.13
2023-02-14T02:40:55.509Z,21.70
2023-02-14T02:43:30.925Z,21.30
2023-02-14T02:46:48.396Z,23.07
2023-02-14T02:50:10.192Z,23.33
2023-02-14T02:53:02.890Z,22.87
2023-02-14T02:56:08.784Z,21.77
2023-02-14T02:59:18.033Z,22.83
2023-02-14T03:02:17.577Z,21.47
2023-02-14T03:04:55.916Z,23.20
2023-02-14T03:07:40.967Z,22.90
2023-02-14T03:10:13.114Z,24.27
2023-02-14T03:12:59.764Z,21.43
2023-02-14T03:15:45.767Z,21.70
2023-02-14T03:18:53.666Z,22.53
2023-02-14T03:21:46.699Z,22.03
2023-02-14T03:24:33.317Z,21.90
2023-02-14T03:27:15.568Z,21.63
2023-02-14T03:30:09.327Z,22.60
2023-02-14T03:32:56.730Z,23.97
2023-02-14T03:35:32.194Z,22.27
2023-02-14T03:38:11.074Z,25.40
2023-02-14T03:40:54.517Z,22.90
2023-02-14T03:43:38.980Z,22.23
2023-02-14T03:46:16.264Z,23.13
2023-02-14T03:48:46.416Z,20.10
2023-02-14T03:51:15.898Z,23.97
2023-02-14T03:53:48.058Z,22.00
2023-02-14T03:56:21.208Z,22.77
2023-02-14T03:58:52.306Z,22.77
2023-02-14T04:01:27.831Z,25.23
2023-02-14T04:03:56.909Z,22.80
2023-02-14T04:06:24.326Z,22.83
2023-02-14T04:08:52.338Z,22.50
2023-02-14T04:11:19.583Z,25.33
2023-02-14T04:13:47.075Z,22.80
2023-02-14T04:16:14.351Z,23.90
2023-02-14T04:19:00.343Z,23.93
2023-02-14T04:21:27.551Z,22.40
2023-02-14T04:23:54.899Z,22.77
2023-02-14T04:26:22.090Z,23.20
2023-02-14T04:28:49.260Z,23.77
2023-02-14T04:31:17.338Z,24.60
2023-02-14T04:33:45.950Z,20.37
2023-02-14T04:36:14.504Z,24.13
2023-02-14T04:38:41.773Z,24.80
2023-02-14T04:41:08.963Z,25.03
2023-02-14T04:43:36.184Z,23.43
2023-02-14T04:46:03.464Z,24.20
2023-02-14T04:48:31.024Z,22.57
2023-02-14T04:50:59.299Z,23.30
2023-02-14T04:53:26.802Z,22.63
2023-02-14T04:55:53.966Z,23.70
2023-02-14T04:58:21.152Z,24.80
2023-02-14T05:00:48.386Z,22.07
2023-02-14T05:03:16.046Z,24.30
2023-02-14T05:05:43.225Z,24.87
2023-02-14T05:08:11.152Z,23.13
2023-02-14T05:10:39.126Z,22.80
2023-02-14T05:13:06.526Z,23.03
2023-02-14T05:15:33.722Z,22.80
2023-02-14T05:18:02.752Z,22.53
2023-02-14T05:20:30.307Z,23.43
2023-02-14T05:23:03.165Z,24.17
2023-02-14T05:25:31.499Z,23.30
2023-02-14T05:27:58.717Z,22.23
2023-02-14T05:30:27.909Z,22.70
2023-02-14T05:32:55.295Z,24.27
2023-02-14T05:35:22.966Z,22.50
2023-02-14T05:37:50.357Z,22.40
2023-02-14T05:40:18.227Z,22.50
2023-02-14T05:42:45.606Z,22.77
2023-02-14T05:45:13.508Z,22.90
2023-02-14T05:47:40.866Z,22.67
2023-02-14T05:50:08.626Z,23.63
2023-02-14T05:52:36.729Z,23.65
2023-02-14T05:55:04.438Z,24.00
2023-02-14T05:57:32.195Z,22.80
2023-02-14T05:59:59.465Z,23.00
2023-02-14T06:02:26.902Z,22.30
2023-02-14T06:04:54.288Z,22.07
2023-02-14T06:07:21.479Z,22.97
2023-02-14T06:09:49.275Z,23.27
2023-02-14T06:12:16.984Z,21.67
2023-02-14T06:14:45.605Z,22.90
2023-02-14T06:17:12.907Z,23.17
2023-02-14T06:19:40.971Z,21.17
2023-02-14T06:22:08.245Z,22.40
2023-02-14T06:24:35.529Z,29.10
2023-02-14T06:27:02.789Z,24.40
2023-02-14T06:29:30.068Z,23.88
2023-02-14T06:31:57.667Z,23.20
2023-02-14T06:34:24.926Z,21.60
2023-02-14T06:36:52.780Z,23.27
2023-02-14T06:39:20.129Z,23.85
2023-02-14T06:41:49.346Z,21.73
2023-02-14T06:44:17.283Z,19.70
2023-02-14T06:46:44.909Z,22.90
2023-02-14T06:49:12.191Z,22.30
2023-02-14T06:51:39.943Z,19.07
2023-02-14T06:54:08.889Z,21.60
2023-02-14T06:56:36.367Z,20.13
2023-02-14T06:59:03.776Z,21.40
2023-02-14T07:01:30.998Z,20.50
2023-02-14T07:03:58.282Z,19.47
2023-02-14T07:06:25.968Z,20.67
2023-02-14T07:08:53.216Z,19.43
2023-02-14T07:11:20.508Z,21.67
2023-02-14T07:13:49.443Z,20.83
2023-02-14T07:16:17.771Z,20.50
2023-02-14T07:18:45.011Z,19.60
2023-02-14T07:21:12.906Z,20.60
2023-02-14T07:23:40.545Z,26.30
2023-02-14T07:26:07.952Z,21.00
2023-02-14T07:28:35.526Z,19.90
2023-02-14T07:31:03.609Z,21.83
2023-02-14T07:33:31.606Z,19.00
2023-02-14T07:35:58.757Z,20.57
2023-02-14T07:38:25.979Z,20.30
2023-02-14T07:40:54.151Z,19.40
2023-02-14T07:43:22.030Z,17.00
2023-02-14T07:45:49.517Z,18.77
2023-02-14T07:48:16.702Z,19.10
2023-02-14T07:50:43.931Z,19.20
2023-02-14T07:53:11.584Z,19.57
2023-02-14T07:55:40.763Z,18.87
2023-02-14T07:58:08.178Z,18.07
2023-02-14T08:00:36.063Z,18.10
2023-02-14T08:03:03.358Z,20.37
2023-02-14T08:05:30.595Z,19.00
2023-02-14T08:07:57.748Z,19.00
2023-02-14T08:10:24.923Z,21.52
2023-02-14T08:12:58.704Z,20.43
2023-02-14T08:15:49.476Z,20.37
2023-02-14T08:18:18.232Z,18.90
2023-02-14T08:20:48.599Z,18.20
2023-02-14T08:23:17.141Z,18.30
2023-02-14T08:25:44.431Z,18.47
2023-02-14T08:28:14.021Z,18.40
2023-02-14T08:30:42.862Z,19.33
2023-02-14T08:33:10.521Z,16.60
2023-02-14T08:35:38.129Z,18.00
2023-02-14T08:38:06.385Z,17.20
2023-02-14T08:40:36.127Z,18.00
2023-02-14T08:43:07.543Z,16.47
2023-02-14T08:45:37.365Z,16.77
2023-02-14T08:48:06.746Z,19.00
2023-02-14T08:50:34.806Z,22.85
2023-02-14T08:53:06.137Z,17.80
2023-02-14T08:55:35.746Z,22.83
2023-02-14T08:58:03.653Z,21.70
2023-02-14T09:00:33.349Z,17.67
2023-02-14T09:03:00.786Z,17.47
2023-02-14T09:05:28.814Z,18.37
2023-02-14T09:07:56.397Z,16.13
2023-02-14T09:10:25.283Z,17.27
2023-02-14T09:12:52.848Z,17.50
2023-02-14T09:15:20.173Z,16.53
2023-02-14T09:17:48.099Z,15.77
2023-02-14T09:20:16.167Z,16.07
2023-02-14T09:22:47.093Z,15.90
2023-02-14T09:25:16.596Z,17.00
2023-02-14T09:27:43.770Z,16.50
2023-02-14T09:30:11.609Z,16.90
2023-02-14T09:32:38.879Z,15.47
2023-02-14T09:35:07.292Z,16.57
2023-02-14T09:37:34.500Z,16.10
2023-02-14T09:40:01.782Z,15.63
2023-02-14T09:42:54.775Z,15.77
2023-02-14T09:45:27.969Z,15.03
2023-02-14T09:48:06.141Z,15.10
2023-02-14T09:50:48.717Z,14.70
2023-02-14T09:53:29.833Z,13.70
2023-02-14T09:56:00.222Z,13.57
2023-02-14T09:58:39.000Z,13.33
2023-02-14T10:01:23.258Z,13.27
2023-02-14T10:04:16.796Z,13.37
2023-02-14T10:06:51.228Z,14.10
2023-02-14T10:09:33.213Z,13.17
2023-02-14T10:12:01.824Z,12.67
2023-02-14T10:14:40.606Z,13.10
2023-02-14T10:17:23.498Z,12.33
2023-02-14T10:20:16.532Z,13.57
2023-02-14T10:22:56.291Z,12.50
2023-02-14T10:25:40.183Z,12.47
2023-02-14T10:28:13.402Z,12.80
2023-02-14T10:30:50.190Z,10.60
2023-02-14T10:33:22.583Z,13.70
2023-02-14T10:35:58.905Z,12.40
2023-02-14T10:38:38.780Z,11.33
2023-02-14T10:41:26.469Z,12.10
2023-02-14T10:44:25.578Z,11.53
2023-02-14T10:47:23.243Z,10.80
2023-02-14T10:50:28.960Z,12.10
2023-02-14T10:53:17.009Z,12.73
2023-02-14T10:55:55.328Z,11.37
2023-02-14T10:58:25.598Z,11.90
2023-02-14T11:01:03.854Z,11.47
2023-02-14T11:03:34.716Z,14.15
2023-02-14T11:06:51.730Z,12.60
2023-02-14T11:09:20.891Z,12.93
2023-02-14T11:11:59.663Z,11.83
2023-02-14T11:14:38.750Z,11.63
2023-02-14T11:17:29.244Z,11.97
2023-02-14T11:20:02.478Z,12.33
2023-02-14T11:22:32.131Z,12.80
2023-02-14T11:25:07.540Z,13.47
2023-02-14T11:27:37.949Z,12.57
2023-02-14T11:30:19.660Z,12.37
2023-02-14T11:32:56.011Z,12.50
2023-02-14T11:35:30.467Z,12.53
2023-02-14T11:38:49.670Z,12.23
2023-02-14T11:41:18.016Z,12.07
2023-02-14T11:43:45.779Z,12.73
2023-02-14T11:46:16.149Z,12.27
2023-02-14T11:49:03.520Z,12.97
2023-02-14T11:51:34.862Z,12.20
2023-02-14T11:54:07.693Z,12.80
2023-02-14T11:56:48.332Z,11.80
2023-02-14T11:59:32.909Z,12.10
2023-02-14T12:02:22.690Z,13.07
2023-02-14T12:04:54.430Z,12.20
2023-02-14T12:07:27.897Z,11.53
2023-02-14T12:10:17.091Z,12.13
2023-02-14T12:12:59.101Z,13.67
2023-02-14T12:15:38.094Z,11.93
2023-02-14T12:18:36.479Z,12.40
2023-02-14T12:21:22.119Z,11.97
2023-02-14T12:23:56.719Z,12.20
2023-02-14T12:26:40.495Z,11.40
2023-02-14T12:29:26.852Z,13.65
2023-02-14T12:32:00.681Z,12.50
2023-02-14T12:35:01.571Z,12.70
2023-02-14T12:37:37.845Z,13.40
2023-02-14T12:40:21.117Z,12.97
2023-02-14T12:43:03.255Z,12.00
2023-02-14T12:45:55.059Z,12.15
2023-02-14T12:48:47.144Z,12.00
2023-02-14T12:51:30.304Z,12.30
2023-02-14T12:54:35.107Z,12.67
2023-02-14T12:57:21.048Z,11.63
2023-02-14T13:00:12.589Z,12.17
2023-02-14T13:03:11.345Z,12.60
2023-02-14T13:05:58.370Z,12.80
2023-02-14T13:09:01.801Z,13.10
2023-02-14T13:11:38.708Z,12.33
2023-02-14T13:14:14.979Z,13.83
2023-02-14T13:17:03.796Z,12.00
2023-02-14T13:19:55.441Z,12.00
2023-02-14T13:22:25.323Z,12.00
2023-02-14T13:25:04.137Z,12.70
2023-02-14T13:27:34.281Z,12.50
2023-02-14T13:30:06.365Z,11.67
2023-02-14T13:32:40.690Z,11.97
2023-02-14T13:35:15.345Z,10.80
2023-02-14T13:37:46.561Z,12.90
2023-02-14T13:40:21.791Z,12.63
2023-02-14T13:42:49.651Z,13.13
2023-02-14T13:45:30.283Z,12.27
2023-02-14T13:48:16.143Z,14.30
2023-02-14T13:51:00.650Z,12.40
2023-02-14T13:53:48.075Z,12.93
2023-02-14T13:56:15.370Z,12.80
2023-02-14T13:58:52.179Z,12.57
2023-02-14T14:01:30.516Z,11.53
2023-02-14T14:04:08.386Z,12.30
2023-02-14T14:07:03.789Z,11.47
2023-02-14T14:09:47.482Z,10.50
2023-02-14T14:12:27.131Z,11.73
2023-02-14T14:15:07.019Z,12.07
2023-02-14T14:17:41.296Z,11.50
2023-02-14T14:20:20.449Z,11.33
2023-02-14T14:22:54.787Z,11.40
2023-02-14T14:25:32.313Z,11.83
2023-02-14T14:28:00.307Z,10.80
2023-02-14T14:30:33.479Z,13.13
2023-02-14T14:33:37.622Z,11.90
2023-02-14T14:36:11.086Z,11.87
2023-02-14T14:38:49.820Z,12.10
2023-02-14T14:41:17.824Z,12.07
2023-02-14T14:43:45.154Z,11.37
2023-02-14T14:46:14.290Z,11.33
2023-02-14T14:48:50.994Z,10.67
2023-02-14T14:51:29.894Z,10.87
2023-02-14T14:54:05.768Z,11.20
2023-02-14T14:56:37.065Z,11.03
2023-02-14T14:59:29.453Z,11.00
2023-02-14T15:01:57.030Z,11.03
2023-02-14T15:04:30.261Z,11.23
2023-02-14T15:07:17.280Z,10.70
2023-02-14T15:09:44.760Z,11.73
2023-02-14T15:12:35.771Z,11.87
2023-02-14T15:15:04.519Z,10.23
2023-02-14T15:17:32.939Z,10.90
2023-02-14T15:20:24.771Z,10.80
2023-02-14T15:22:53.363Z,11.03
2023-02-14T15:25:25.512Z,10.30
2023-02-14T15:27:53.631Z,11.30
2023-02-14T15:30:54.974Z,11.23
2023-02-14T15:33:22.425Z,11.53
2023-02-14T15:35:50.459Z,10.83
2023-02-14T15:38:21.719Z,11.30
2023-02-14T15:40:49.480Z,12.40
2023-02-14T15:43:34.709Z,11.60
2023-02-14T15:46:37.188Z,10.93
2023-02-14T15:49:14.859Z,10.23
2023-02-14T15:51:43.190Z,10.80
2023-02-14T15:54:33.245Z,10.30
2023-02-14T15:57:01.199Z,11.40
2023-02-14T15:59:33.379Z,9.97
2023-02-14T16:02:37.033Z,10.83
2023-02-14T16:05:17.207Z,11.73
2023-02-14T16:08:24.564Z,11.00
2023-02-14T16:11:13.552Z,11.27
2023-02-14T16:13:43.914Z,10.73
2023-02-14T16:16:13.138Z,11.50
2023-02-14T16:18:47.400Z,13.30
2023-02-14T16:21:27.345Z,12.30
2023-02-14T16:24:07.375Z,11.97
2023-02-14T16:26:37.824Z,12.23
2023-02-14T16:29:13.564Z,12.13
2023-02-14T16:32:01.221Z,11.40
2023-02-14T16:34:32.128Z,11.33
2023-02-14T16:37:08.289Z,12.30
2023-02-14T16:39:35.897Z,12.07
2023-02-14T16:42:04.010Z,11.70
2023-02-14T16:44:31.417Z,11.20
2023-02-14T16:46:58.681Z,11.63
2023-02-14T16:49:25.973Z,12.40
2023-02-14T16:51:55.390Z,12.07
2023-02-14T16:54:26.338Z,12.00
2023-02-14T16:56:57.626Z,11.50
2023-02-14T16:59:25.727Z,11.03
2023-02-14T17:01:53.741Z,13.20
2023-02-14T17:04:21.141Z,12.33
2023-02-14T17:06:57.003Z,12.30
2023-02-14T17:09:33.217Z,13.37
2023-02-14T17:12:05.366Z,12.43
2023-02-14T17:14:36.955Z,12.53
2023-02-14T17:17:04.287Z,12.50
2023-02-14T17:19:34.028Z,13.00
2023-02-14T17:22:01.351Z,13.30
2023-02-14T17:24:29.907Z,12.47
2023-02-14T17:26:57.140Z,13.00
2023-02-14T17:29:24.356Z,13.90
2023-02-14T17:31:51.651Z,13.50
2023-02-14T17:34:18.935Z,12.73
2023-02-14T17:36:46.412Z,13.30
2023-02-14T17:39:14.757Z,13.98
2023-02-14T17:41:41.933Z,13.60
2023-02-14T17:44:09.374Z,14.30
2023-02-14T17:46:36.672Z,13.70
2023-02-14T17:49:04.010Z,13.37
2023-02-14T17:51:31.434Z,14.07
2023-02-14T17:53:59.174Z,14.83
2023-02-14T17:56:26.633Z,15.13
2023-02-14T17:58:56.543Z,13.57
2023-02-14T18:01:26.595Z,13.53
2023-02-14T18:03:54.878Z,14.60
2023-02-14T18:06:22.506Z,15.77
2023-02-14T18:08:52.599Z,15.67
2023-02-14T18:11:21.282Z,16.30
2023-02-14T18:13:49.750Z,16.00
2023-02-14T18:16:22.179Z,15.10
2023-02-14T18:18:49.404Z,16.07
2023-02-14T18:21:21.681Z,14.83
2023-02-14T18:23:48.946Z,16.20
2023-02-14T18:26:18.024Z,15.73
2023-02-14T18:28:48.821Z,15.30
2023-02-14T18:31:18.018Z,15.50
2023-02-14T18:33:46.757Z,16.77
2023-02-14T18:36:16.453Z,16.17
2023-02-14T18:38:45.784Z,17.33
2023-02-14T18:41:15.937Z,17.80
2023-02-14T18:43:44.491Z,18.37
2023-02-14T18:46:27.309Z,17.20
2023-02-14T18:48:56.658Z,18.50
2023-02-14T18:51:27.081Z,18.10
2023-02-14T18:53:57.128Z,18.53
2023-02-14T18:56:28.614Z,17.20
2023-02-14T18:59:01.511Z,19.83
2023-02-14T19:01:31.339Z,17.17
2023-02-14T19:04:00.367Z,18.70
2023-02-14T19:06:30.796Z,19.47
2023-02-14T19:08:58.294Z,19.00
2023-02-14T19:11:28.025Z,18.87
2023-02-14T19:13:57.393Z,18.47
2023-02-14T19:16:28.322Z,17.97
2023-02-14T19:18:56.034Z,17.60
2023-02-14T19:21:25.644Z,18.00
2023-02-14T19:23:55.936Z,16.80
2023-02-14T19:26:27.253Z,16.53
2023-02-14T19:28:57.961Z,17.13
2023-02-14T19:31:25.768Z,18.03
2023-02-14T19:33:53.416Z,16.80
2023-02-14T19:36:22.597Z,16.93
2023-02-14T19:38:53.265Z,18.20
2023-02-14T19:41:23.980Z,17.80
2023-02-14T19:43:52.559Z,17.70
2023-02-14T19:46:21.566Z,18.00
2023-02-14T19:48:53.073Z,17.10
2023-02-14T19:51:30.377Z,16.13
2023-02-14T19:53:59.281Z,16.33
2023-02-14T19:56:29.604Z,16.23
2023-02-14T19:58:57.652Z,16.97
2023-02-14T20:01:34.240Z,17.10
2023-02-14T20:04:02.149Z,17.37
2023-02-14T20:06:30.344Z,16.43
2023-02-14T20:08:58.010Z,17.03
2023-02-14T20:11:46.169Z,16.93
2023-02-14T20:14:14.194Z,18.80
2023-02-14T20:16:41.704Z,17.93
2023-02-14T20:19:16.392Z,18.70
2023-02-14T20:21:47.563Z,18.63
2023-02-14T20:24:20.205Z,16.90
2023-02-14T20:26:48.308Z,17.37
2023-02-14T20:29:16.856Z,18.70
2023-02-14T20:31:48.300Z,18.30
2023-02-14T20:34:16.332Z,16.40
2023-02-14T20:36:49.228Z,18.50
2023-02-14T20:39:16.477Z,18.07
2023-02-14T20:41:46.219Z,18.47
2023-02-14T20:44:15.410Z,19.00
2023-02-14T20:46:42.641Z,18.83
2023-02-14T20:49:12.378Z,19.10
2023-02-14T20:51:40.717Z,18.43
2023-02-14T20:54:08.003Z,17.93
2023-02-14T20:56:35.785Z,18.07
2023-02-14T20:59:03.391Z,18.00
2023-02-14T21:01:30.653Z,17.97
2023-02-14T21:03:58.142Z,19.60
2023-02-14T21:06:31.755Z,18.43
2023-02-14T21:09:02.034Z,19.17
2023-02-14T21:11:29.298Z,19.50
2023-02-14T21:13:59.894Z,18.00
2023-02-14T21:16:28.720Z,19.40
2023-02-14T21:19:00.724Z,18.23
2023-02-14T21:21:35.931Z,19.40
2023-02-14T21:24:12.460Z,18.97
2023-02-14T21:26:39.937Z,17.77
2023-02-14T21:29:08.475Z,18.87
2023-02-14T21:31:36.869Z,19.27
2023-02-14T21:34:04.747Z,19.27
2023-02-14T21:36:35.614Z,21.13
2023-02-14T21:39:04.308Z,18.30
2023-02-14T21:41:32.143Z,20.33
2023-02-14T21:44:00.856Z,20.67
2023-02-14T21:46:31.844Z,21.00
2023-02-14T21:49:23.306Z,19.97
2023-02-14T21:51:50.832Z,18.93
2023-02-14T21:54:19.077Z,19.37
2023-02-14T21:56:47.048Z,19.20
2023-02-14T21:59:14.243Z,20.10
2023-02-14T22:01:42.417Z,19.50
2023-02-14T22:04:12.258Z,18.93
2023-02-14T22:06:41.474Z,20.23
2023-02-14T22:09:10.849Z,21.10
2023-02-14T22:11:38.331Z,19.40
2023-02-14T22:14:05.531Z,21.27
2023-02-14T22:16:32.773Z,21.07
2023-02-14T22:18:59.942Z,21.00
2023-02-14T22:21:27.478Z,21.17
2023-02-14T22:23:55.607Z,21.00
2023-02-14T22:26:26.008Z,20.27
2023-02-14T22:28:57.221Z,21.40
2023-02-14T22:31:26.692Z,21.33
2023-02-14T22:33:54.448Z,21.50
2023-02-14T22:36:22.038Z,22.07
2023-02-14T22:38:49.700Z,24.20
2023-02-14T22:41:19.439Z,22.47
2023-02-14T22:43:46.968Z,21.90
2023-02-14T22:46:17.164Z,21.50
2023-02-14T22:48:44.572Z,24.67
2023-02-14T22:51:24.871Z,22.50
2023-02-14T22:53:54.372Z,24.57
2023-02-14T22:56:27.108Z,25.17
2023-02-14T22:58:56.256Z,23.20
2023-02-14T23:01:24.996Z,25.50
2023-02-14T23:03:57.985Z,24.80
2023-02-14T23:06:27.118Z,22.27
2023-02-14T23:08:54.955Z,20.53
2023-02-14T23:11:28.021Z,16.67
2023-02-14T23:14:14.777Z,17.03
2023-02-14T23:17:01.425Z,21.60
2023-02-14T23:19:50.526Z,18.20
2023-02-14T23:22:23.778Z,19.23
2023-02-14T23:24:53.484Z,20.27
2023-02-14T23:27:23.861Z,19.27
2023-02-14T23:29:51.196Z,20.43
2023-02-14T23:32:18.931Z,20.87
2023-02-14T23:34:46.803Z,21.10
2023-02-14T23:37:14.579Z,23.53
2023-02-14T23:39:42.081Z,21.60
2023-02-14T23:42:13.568Z,21.87
2023-02-14T23:44:43.306Z,23.87
2023-02-14T23:47:11.768Z,23.90
2023-02-14T23:49:40.581Z,22.23
2023-02-14T23:52:10.373Z,26.50
2023-02-14T23:54:37.943Z,27.60
2023-02-14T23:57:07.305Z,25.50
2023-02-14T23:59:34.480Z,23.20
